Latest Weather Observations for Ouse

IDT60801

Issued at 10:02 am EDT Monday 2 March 2015 (issued every 30 minutes, with the page automatically refreshed every 10 minutes)

About weather observations | Map of weather stations | Latest weather observations for TAS | Other Formats
Station Details ID: 095048 Name: OUSE FIRE STATION Lat: -42.48 Lon: 146.71 Height: 90.0 m
Data from the previous 72 hours. | See also: Recent months at Ouse
Date/Time
EDT
Temp
°C
App
Temp
°C
Dew
Point
Rel
Hum
%
Delta-T
°C
Wind Press
QNH
hPa
Press
MSL
hPa
Rain
since 9 am
mm
Dir
 
Spd
km/h
Gust
km/h
Spd
kts
Gust
kts
02/10:00am 10.7 8.9 5.3 69 2.5 ESE 4 9 2 5 1018.6 1018.5 0.0
02/09:30am 9.5 7.6 4.9 73 2.1 ENE 4 7 2 4 1018.9 1018.8 0.0
02/09:00am 7.7 5.4 4.8 82 1.3 NE 6 7 3 4 1019.2 1019.1 0.0
02/08:30am 5.4 4.3 5.0 97 0.2 CALM 0 2 0 1 1019.4 1019.3 0.0
02/08:00am 2.8 0.1 2.8 100 0.0 N 6 9 3 5 1019.4 1019.3 0.0
02/07:30am 0.6 -1.3 0.5 99 0.0 CALM 0 0 0 0 1019.3 1019.2 0.0
02/07:00am 0.3 -1.7 0.0 98 0.1 CALM 0 6 0 3 1018.8 1018.7 0.0
02/06:30am 1.1 -1.2 0.7 97 0.1 NW 2 6 1 3 1018.6 1018.5 0.0
02/06:00am 1.2 -0.7 0.6 96 0.2 CALM 0 0 0 0 1018.8 1018.7 0.0
02/05:30am 1.9 0.1 1.3 96 0.2 CALM 0 0 0 0 1018.5 1018.4 0.0
02/05:00am 2.2 0.4 1.5 95 0.3 CALM 0 0 0 0 1018.7 1018.6 0.0
02/04:30am 2.7 1.0 1.8 94 0.4 CALM 0 0 0 0 1018.5 1018.4 0.0
02/04:00am 3.4 1.5 2.7 95 0.3 N 2 7 1 4 1018.6 1018.5 0.0
02/03:30am 3.7 2.1 2.5 92 0.5 CALM 0 0 0 0 1018.4 1018.3 0.0
02/03:00am 4.3 2.8 3.1 92 0.5 CALM 0 0 0 0 1018.2 1018.1 0.0
02/02:30am 5.1 2.4 3.8 91 0.5 N 7 11 4 6 1018.0 1017.9 0.0
02/02:00am 5.5 2.8 3.8 89 0.7 N 7 11 4 6 1018.0 1017.9 0.0
02/01:30am 5.8 3.2 4.1 89 0.7 NE 7 9 4 5 1017.9 1017.8 0.0
02/01:00am 6.9 4.0 4.6 85 1.0 NW 9 17 5 9 1018.0 1017.9 0.0
02/12:30am 7.0 4.1 4.5 84 1.1 N 9 13 5 7 1018.0 1017.9 0.0
02/12:00am 7.1 4.1 4.1 81 1.3 NNW 9 15 5 8 1017.6 1017.5 0.0
 
Date/Time
EDT
Temp
°C
App
Temp
°C
Dew
Point
Rel
Hum
%
Delta-T
°C
Wind Press
QNH
hPa
Press
MSL
hPa
Rain
since 9 am
mm
Dir
 
Spd
km/h
Gust
km/h
Spd
kts
Gust
kts
01/11:30pm 7.9 4.9 4.1 77 1.7 NW 9 13 5 7 1017.4 1017.3 0.0
01/11:00pm 9.4 6.1 4.4 71 2.2 NW 11 15 6 8 1017.4 1017.3 0.0
01/10:30pm 8.8 5.9 4.8 76 1.8 NW 9 13 5 7 1017.8 1017.7 0.0
01/10:00pm 8.8 5.7 3.6 70 2.3 NNE 9 11 5 6 1017.9 1017.8 0.0
01/09:30pm 11.4 7.5 3.2 57 3.6 WNW 13 17 7 9 1017.4 1017.3 0.0
01/09:00pm 12.5 8.6 3.5 54 4.0 W 13 24 7 13 1017.1 1017.0 0.0
01/08:30pm 12.5 9.6 4.7 59 3.6 WNW 9 11 5 6 1016.6 1016.5 0.0
01/08:00pm 13.1 9.8 4.8 57 3.8 WSW 11 17 6 9 1015.9 1015.9 0.0
01/07:30pm 13.8 9.8 4.7 54 4.2 SW 15 26 8 14 1015.5 1015.5 0.0
01/07:00pm 14.9 10.5 4.6 50 4.8 WSW 17 30 9 16 1014.9 1014.9 0.0
01/06:30pm 16.4 11.2 5.7 49 5.2 WSW 22 30 12 16 1014.2 1014.1 0.0
01/06:00pm 16.9 12.1 4.9 45 5.7 W 19 28 10 15 1013.9 1013.8 0.0
01/05:30pm 17.8 13.4 6.7 48 5.5 WSW 19 28 10 15 1013.7 1013.6 0.0
01/05:00pm 17.7 12.4 6.9 49 5.4 WSW 24 37 13 20 1013.0 1012.9 0.0
01/04:30pm 18.3 12.3 7.1 48 5.6 WSW 28 43 15 23 1012.6 1012.5 0.0
01/04:00pm 20.1 14.8 8.4 47 6.1 WSW 26 37 14 20 1011.8 1011.7 0.0
01/03:30pm 19.4 14.0 8.1 48 5.9 SW 26 41 14 22 1011.6 1011.5 0.0
01/03:00pm 20.4 15.1 8.4 46 6.3 SW 26 35 14 19 1011.1 1011.0 0.0
01/02:30pm 19.9 15.3 8.3 47 6.0 SW 22 35 12 19 1010.7 1010.6 0.0
01/02:00pm 19.8 15.7 8.5 48 5.9 W 20 28 11 15 1010.2 1010.1 0.0
01/01:30pm 21.3 17.4 8.6 44 6.7 WSW 19 28 10 15 1009.9 1009.8 0.0
01/01:00pm 19.4 14.0 6.2 42 6.6 WSW 24 44 13 24 1009.8 1009.7 0.0
01/12:30pm 20.3 16.5 7.7 44 6.5 SW 17 28 9 15 1009.5 1009.4 0.0
01/12:00pm 18.9 14.2 7.7 48 5.7 WSW 22 35 12 19 1009.3 1009.2 0.0
01/11:30am 18.1 13.7 7.2 49 5.5 WSW 20 30 11 16 1009.0 1008.9 0.0
01/11:00am 17.9 13.7 7.3 50 5.4 WSW 19 30 10 16 1008.7 1008.6 0.0
01/10:30am 17.5 13.5 8.4 55 4.7 SW 19 30 10 16 1008.3 1008.1 0.0
01/10:00am 16.4 12.4 8.1 58 4.2 W 19 28 10 15 1007.6 1007.4 0.0
01/09:30am 16.5 12.6 8.5 59 4.1 SW 19 32 10 17 1007.1 1006.9 0.0
01/09:00am 14.9 11.7 8.4 65 3.3 WNW 15 20 8 11 1006.5 1006.3 0.0
01/08:30am 14.7 12.2 8.2 65 3.3 SW 11 17 6 9 1005.9 1005.7 0.0
01/08:00am 14.0 10.6 7.8 66 3.1 WNW 15 22 8 12 1005.3 1005.1 0.0
01/07:30am 14.0 9.9 7.8 66 3.1 WNW 19 28 10 15 1004.6 1004.5 0.0
01/07:00am 13.7 10.0 7.9 68 2.9 WNW 17 32 9 17 1004.0 1003.8 0.0
01/06:30am 13.8 10.2 8.4 70 2.7 WNW 17 26 9 14 1003.3 1003.1 0.0
01/06:00am 13.6 10.1 8.9 73 2.4 NW 17 24 9 13 1002.5 1002.3 0.0
01/05:30am 13.8 11.1 9.0 73 2.4 WNW 13 20 7 11 1002.2 1002.0 0.0
01/05:00am 13.3 11.3 8.8 74 2.3 NNW 9 15 5 8 1001.9 1001.7 0.0
01/04:30am 13.7 11.3 8.7 72 2.5 NW 11 20 6 11 1001.9 1001.7 0.0
01/04:00am 14.2 10.4 9.0 71 2.7 NW 19 32 10 17 1001.6 1001.4 0.0
01/03:30am 14.0 10.9 9.0 72 2.5 NNW 15 20 8 11 1001.8 1001.6 0.0
01/03:00am 14.4 11.4 9.2 71 2.7 NW 15 20 8 11 1001.8 1001.6 0.0
01/02:30am 15.2 13.9 10.0 71 2.7 NNW 7 13 4 7 1001.7 1001.5 0.0
01/02:00am 15.6 13.7 10.4 71 2.8 NW 11 19 6 10 1001.6 1001.4 0.0
01/01:30am 15.8 13.8 10.1 69 3.0 NW 11 20 6 11 1001.3 1001.1 0.0
01/01:00am 16.2 14.5 9.8 66 3.4 NNW 9 15 5 8 1001.2 1001.0 0.0
01/12:30am 16.4 14.4 10.0 66 3.4 N 11 22 6 12 1001.0 1000.8 0.0
01/12:00am 17.2 14.9 10.3 64 3.7 NW 13 24 7 13 1000.6 1000.4 0.0
 
Date/Time
EDT
Temp
°C
App
Temp
°C
Dew
Point
Rel
Hum
%
Delta-T
°C
Wind Press
QNH
hPa
Press
MSL
hPa
Rain
since 9 am
mm
Dir
 
Spd
km/h
Gust
km/h
Spd
kts
Gust
kts
28/11:30pm 17.5 14.4 10.4 63 3.8 NW 17 32 9 17 1000.2 1000.0 0.0
28/11:00pm 18.0 14.6 11.1 64 3.8 WNW 20 44 11 24 999.6 999.4 0.0
28/10:30pm 18.9 16.0 12.4 66 3.6 WNW 19 35 10 19 999.7 999.5 0.0
28/10:00pm 19.2 17.6 12.9 67 3.6 NW 13 26 7 14 999.2 999.0 0.0
28/09:30pm 19.7 17.5 13.2 66 3.7 NW 17 28 9 15 998.7 998.5 0.0
28/09:00pm 20.2 17.6 13.2 64 4.0 WNW 19 28 10 15 997.7 997.5 0.0
28/08:30pm 19.0 19.2 14.1 73 2.8 WNW 6 20 3 11 997.7 997.5 0.0
28/08:00pm 20.5 20.1 14.2 67 3.7 NW 9 13 5 7 997.2 997.0 0.0
28/07:30pm 21.3 21.6 14.5 65 4.0 NW 6 11 3 6 996.9 996.7 0.0
28/07:00pm 22.6 22.0 14.7 61 4.7 WNW 11 19 6 10 996.5 996.3 0.0
28/06:30pm 22.0 20.5 14.1 61 4.6 NW 15 20 8 11 997.1 996.9 0.0
28/06:00pm 22.0 20.8 13.9 60 4.8 WNW 13 17 7 9 997.2 997.0 0.0
28/05:30pm 21.9 20.5 13.5 59 4.9 NNW 13 24 7 13 997.1 996.9 0.0
28/05:00pm 21.9 18.8 13.5 59 4.9 NW 22 35 12 19 997.8 997.6 0.0
28/04:30pm 19.5 19.1 12.5 64 3.9 NNW 6 9 3 5 998.3 998.1 0.0
28/04:00pm 19.0 19.2 12.0 64 3.9 ESE 2 7 1 4 998.6 998.4 0.0
28/03:30pm 18.8 18.3 11.9 64 3.8 SE 6 7 3 4 999.0 998.8 0.0
28/03:00pm 17.7 16.5 11.7 68 3.3 SE 9 13 5 7 999.5 999.3 0.0
28/02:30pm 17.1 16.2 11.4 69 3.1 ESE 7 11 4 6 1000.1 999.9 0.0
28/02:00pm 16.6 15.3 11.3 71 2.9 SE 9 11 5 6 1000.8 1000.6 0.0
28/01:30pm 16.2 15.1 10.7 70 2.9 ESE 7 9 4 5 1001.4 1001.2 0.0
28/01:00pm 15.5 14.2 9.8 69 3.0 ESE 7 9 4 5 1001.7 1001.5 0.0
28/12:30pm 14.9 15.0 10.3 74 2.4 CALM 0 0 0 0 1002.1 1001.9 0.0
28/12:00pm 14.1 14.2 10.3 78 2.0 CALM 0 0 0 0 1002.6 1002.4 0.0
28/11:30am 13.9 14.2 10.9 82 1.6 CALM 0 0 0 0 1002.9 1002.7 0.0
28/11:00am 14.5 14.4 9.3 71 2.7 CALM 0 0 0 0 1003.3 1003.1 0.0
28/10:30am 14.5 13.9 8.9 69 2.9 ESE 2 6 1 3 1003.7 1003.5 0.0
28/10:00am 15.1 14.4 8.6 65 3.3 NNE 2 9 1 5 1004.2 1004.0 0.0
28/09:30am 13.7 13.3 8.1 69 2.8 CALM 0 0 0 0 1004.5 1004.4 0.0
28/09:00am 13.3 11.8 8.4 72 2.5 NNE 6 9 3 5 1005.0 1004.8 -
28/08:30am 11.9 10.1 8.0 77 1.9 NNE 7 9 4 5 1005.5 1005.3 -
28/08:00am 10.9 10.1 8.1 83 1.4 N 2 6 1 3 1005.8 1005.6 -
28/07:30am 8.9 6.9 7.2 89 0.8 N 7 9 4 5 1005.9 1005.7 -
28/07:00am 8.8 6.9 6.6 86 1.0 NW 6 7 3 4 1006.3 1006.1 -
28/06:30am 10.3 8.6 7.4 82 1.4 NW 6 9 3 5 1006.4 1006.2 -
28/06:00am 10.5 8.8 7.6 82 1.4 NNE 6 7 3 4 1006.8 1006.6 -
28/05:30am 10.8 9.9 7.7 81 1.5 N 2 6 1 3 1007.0 1006.8 -
28/05:00am 10.7 10.1 7.6 81 1.5 CALM 0 0 0 0 1007.1 1006.9 -
28/04:30am 10.9 9.2 7.4 79 1.7 NW 6 7 3 4 1007.8 1007.6 -
28/04:00am 10.8 9.0 7.3 79 1.7 N 6 9 3 5 1008.1 1007.9 -
28/03:30am 10.7 8.9 7.2 79 1.7 N 6 7 3 4 1008.6 1008.4 -
28/03:00am 10.7 8.3 7.0 78 1.8 NNW 9 9 5 5 1009.0 1008.8 0.0
28/02:30am 10.6 8.2 6.9 78 1.8 NNW 9 13 5 7 1009.3 1009.1 -
28/02:00am 10.3 8.3 7.2 81 1.5 N 7 11 4 6 1009.3 1009.1 -
28/01:30am 9.9 8.0 7.5 85 1.1 NNW 7 11 4 6 1009.7 1009.5 -
28/01:00am 9.2 7.6 6.5 83 1.3 N 4 7 2 4 1010.1 1009.9 -
28/12:30am 10.2 9.6 7.3 82 1.4 CALM 0 0 0 0 1010.1 1009.9 -
28/12:00am 11.2 10.6 7.5 78 1.8 CALM 0 0 0 0 1010.3 1010.1 -
 
Date/Time
EDT
Temp
°C
App
Temp
°C
Dew
Point
Rel
Hum
%
Delta-T
°C
Wind Press
QNH
hPa
Press
MSL
hPa
Rain
since 9 am
mm
Dir
 
Spd
km/h
Gust
km/h
Spd
kts
Gust
kts
27/11:30pm 12.4 12.1 8.5 77 1.9 CALM 0 0 0 0 1010.5 1010.3 -
27/11:00pm 12.7 12.1 7.6 71 2.5 CALM 0 0 0 0 1010.4 1010.2 -
27/10:30pm 13.0 12.1 7.9 71 2.5 NNE 2 6 1 3 1010.4 1010.2 -
27/10:00pm 13.8 12.0 7.8 67 3.0 NE 7 11 4 6 1010.4 1010.2 -
27/09:30pm 14.4 12.6 8.1 66 3.2 N 7 9 4 5 1010.3 1010.1 -
27/09:00pm 14.6 12.5 8.1 65 3.3 NNE 9 11 5 6 1010.1 1009.9 0.0
27/08:30pm 14.5 12.8 8.2 66 3.2 NNW 7 9 4 5 1009.4 1009.2 -
27/08:00pm 15.3 12.8 8.1 62 3.6 NNW 11 15 6 8 1009.1 1008.9 -
27/07:30pm 16.8 14.2 7.7 55 4.6 WNW 11 13 6 7 1008.7 1008.5 -
27/07:00pm 17.5 15.0 8.1 54 4.8 WNW 11 17 6 9 1008.7 1008.5 -
27/06:30pm 17.3 14.3 7.6 53 4.9 W 13 19 7 10 1008.8 1008.6 -
27/06:00pm 18.3 13.7 8.0 51 5.3 WSW 22 33 12 18 1008.7 1008.5 -
27/05:30pm 18.8 14.6 8.2 50 5.5 W 20 32 11 17 1008.6 1008.4 -
27/05:00pm 19.7 16.1 8.4 48 5.9 WSW 17 28 9 15 1008.2 1008.0 -
27/04:30pm 20.2 17.5 8.8 48 6.0 WSW 13 22 7 12 1007.8 1007.6 -
27/04:00pm 20.2 17.1 8.8 48 6.0 WSW 15 24 8 13 1007.9 1007.7 -
27/03:30pm 19.9 16.6 9.5 51 5.5 W 17 26 9 14 1008.3 1008.1 -
27/03:00pm 19.7 15.8 9.3 51 5.5 W 20 26 11 14 1008.3 1008.1 -
27/02:30pm 19.7 15.8 9.3 51 5.5 W 20 26 11 14 1008.4 1008.2 -
27/02:00pm 20.2 16.9 9.5 50 5.7 WNW 17 24 9 13 1008.2 1008.0 -
27/01:30pm 19.8 17.7 9.7 52 5.4 N 11 20 6 11 1008.3 1008.1 -
27/01:00pm 18.9 16.7 9.4 54 5.0 ENE 11 15 6 8 1008.6 1008.4 -
27/12:30pm 18.1 16.0 8.4 53 5.0 WSW 9 19 5 10 1009.2 1009.0 -
27/12:00pm 18.5 17.1 8.7 53 5.1 S 6 11 3 6 1009.2 1009.0 -
27/11:30am 17.6 15.2 8.7 56 4.6 ESE 11 13 6 7 1009.6 1009.4 -
27/11:00am 15.9 15.0 7.9 59 4.0 NW 2 7 1 4 1010.3 1010.1 -
27/10:30am 15.6 14.0 7.9 60 3.9 ESE 6 9 3 5 1010.3 1010.1 -

Other Formats:

Comma delimited format used in spreadsheet applications
http://www.bom.gov.au/fwo/IDT60801/IDT60801.94957.axf

JavaScript Object Notation format (JSON) in row-major order
http://www.bom.gov.au/fwo/IDT60801/IDT60801.94957.json